9G8 weather

Ebensburg Airport
Ebensburg, Pennsylvania, United States

Public forecast

Using degrees Fahrenheit for public forecast. Weather courtesy of forecast.io.

METAR (pilot weather report)

Closest report is John Murtha Johnstown Cambria County Airport, 9.1 nm (16.9 km) SSW. Retrieved 2019/05/24 09:54 UTC (30 minutes ago):

KJST 240954Z AUTO 29008KT 10SM CLR 12/08 A3008 RMK AO2 SLP179 T01170078 PNO $

TAF (pilot weather forecast)

Closest forecast is John Murtha Johnstown Cambria County Airport, 9.1 nm (16.9 km) SSW. Retrieved 2019/05/24 06:48 UTC (4 hours ago):

TAF KJST 240546Z 2406/2506 30016G21KT P6SM SCT014 SCT030 BKN040 FM241100 30010KT P6SM OVC025 FM241400 30012G20KT P6SM SCT050 FM242300 31007KT P6SM FEW250